.
WxDataArchive / Data Records for 2013-12-24
2013-12-23 December 2013 2013-12-25

Data Records for Tuesday, 24 December 2013

Time	Temp	Chill	HIndex	Humid	Dewpt	 Wind 	HiWind	WindDir	Rain 	Barom 
-----	----	-----	------	-----	-----	------	------	-------	-----	----- 
00:00	14.4	14.4	14.4	69	6.1	1	5	292	0.00	30.397 
00:05	14.4	14.4	14.4	69	6.1	2	4	248	0.00	30.397 
00:10	14.1	14.1	14.1	68	5.5	2	4	292	0.00	30.397 
00:15	13.8	13.8	13.8	68	5.2	2	5	270	0.00	30.404 
00:20	13.6	13.6	13.6	68	5.0	2	5	270	0.00	30.404 
00:25	13.5	13.5	13.5	68	4.9	1	4	248	0.00	30.404 
00:30	13.5	13.5	13.5	68	4.9	2	4	270	0.00	30.401 
00:35	13.5	13.5	13.5	68	4.9	2	5	248	0.00	30.401 
00:40	13.1	13.1	13.1	66	3.9	2	4	270	0.00	30.401 
00:45	12.8	12.8	12.8	66	3.6	2	5	270	0.00	30.403 
00:50	12.4	12.4	12.4	66	3.2	2	4	270	0.00	30.403 
00:55	12.3	12.3	12.3	67	3.5	2	4	292	0.00	30.403 
01:00	11.9	11.9	11.9	68	3.4	2	4	270	0.00	30.407 
01:05	11.7	11.7	11.7	69	3.5	1	3	270	0.00	30.407 
01:10	11.7	11.7	11.7	69	3.5	1	3	270	0.00	30.407 
01:15	11.7	11.7	11.7	70	3.8	2	6	270	0.00	30.409 
01:20	11.7	11.7	11.7	71	4.1	1	4	270	0.00	30.409 
01:25	11.6	11.6	11.6	71	4.0	1	3	270	0.00	30.409 
01:30	11.4	11.4	11.4	71	3.9	1	6	292	0.00	30.412 
01:35	11.2	11.2	11.2	70	3.4	2	7	292	0.00	30.412 
01:40	11.1	11.1	11.1	70	3.3	1	3	292	0.00	30.412 
01:45	11.1	11.1	11.1	71	3.6	1	3	270	0.00	30.412 
01:50	10.9	10.9	10.9	71	3.4	3	7	270	0.00	30.412 
01:55	10.7	10.7	10.7	71	3.2	1	5	270	0.00	30.412 
02:00	10.7	10.7	10.7	71	3.2	2	4	315	0.00	30.415 
02:05	10.5	10.5	10.5	71	3.0	2	4	292	0.00	30.415 
02:10	10.5	10.5	10.5	72	3.3	1	4	292	0.00	30.415 
02:15	10.4	10.4	10.4	71	2.9	1	6	292	0.00	30.423 
02:20	10.2	10.2	10.2	71	2.7	3	7	292	0.00	30.423 
02:25	9.7	9.7	9.7	70	1.9	3	6	270	0.00	30.423 
02:30	9.2	9.2	9.2	68	0.8	2	4	270	0.00	30.432 
02:35	8.8	8.8	8.8	69	0.7	2	7	270	0.00	30.432 
02:40	8.8	8.8	8.8	69	0.7	1	6	270	0.00	30.432 
02:45	8.8	8.8	8.8	69	0.7	1	4	248	0.00	30.434 
02:50	8.6	8.6	8.6	69	0.5	2	5	248	0.00	30.434 
02:55	8.4	8.4	8.4	69	0.4	2	4	270	0.00	30.434 
03:00	8.3	8.3	8.3	69	0.3	1	3	248	0.00	30.438 
03:05	8.1	8.1	8.1	69	0.1	2	5	248	0.00	30.438 
03:10	7.9	7.9	7.9	69	-0.1	2	5	248	0.00	30.438 
03:15	7.7	7.7	7.7	69	-0.3	2	5	292	0.00	30.446 
03:20	7.7	7.7	7.7	69	-0.3	2	5	248	0.00	30.446 
03:25	7.7	7.7	7.7	69	-0.3	2	7	270	0.00	30.446 
03:30	7.7	7.7	7.7	69	-0.3	2	5	292	0.00	30.446 
03:35	7.7	7.7	7.7	69	-0.3	2	3	270	0.00	30.446 
03:40	7.7	7.7	7.7	69	-0.3	1	5	270	0.00	30.446 
03:45	7.6	7.6	7.6	69	-0.4	1	4	292	0.00	30.446 
03:50	7.6	7.6	7.6	70	-0.1	1	3	292	0.00	30.446 
03:55	7.6	7.6	7.6	70	-0.1	2	4	270	0.00	30.446 
04:00	7.6	7.6	7.6	70	-0.1	2	4	292	0.00	30.446 
04:05	7.4	7.4	7.4	70	-0.3	2	5	270	0.00	30.446 
04:10	7.6	7.6	7.6	70	-0.1	1	3	292	0.00	30.446 
04:15	7.6	7.6	7.6	71	0.2	1	6	292	0.00	30.449 
04:20	7.4	7.4	7.4	71	0.0	2	4	315	0.00	30.449 
04:25	7.2	7.2	7.2	71	-0.2	2	5	248	0.00	30.449 
04:30	6.9	6.9	6.9	70	-0.8	2	6	338	0.00	30.452 
04:35	6.7	6.7	6.7	70	-1.0	1	4	292	0.00	30.452 
04:40	6.7	6.7	6.7	70	-1.0	1	3	248	0.00	30.452 
04:45	6.5	6.5	6.5	70	-1.2	1	3	248	0.00	30.452 
04:50	6.5	6.5	6.5	71	-0.9	0	3	248	0.00	30.452 
04:55	6.5	6.5	6.5	71	-0.9	1	3	248	0.00	30.452 
05:00	6.3	6.3	6.3	71	-1.1	1	4	248	0.00	30.456 
05:05	6.1	6.1	6.1	71	-1.3	0	3	248	0.00	30.456 
05:10	6.1	6.1	6.1	71	-1.3	0	2	248	0.00	30.456 
05:15	6.3	6.3	6.3	71	-1.1	1	3	248	0.00	30.455 
05:20	6.5	6.5	6.5	72	-0.6	1	2	248	0.00	30.455 
05:25	6.7	6.7	6.7	72	-0.4	1	4	248	0.00	30.455 
05:30	6.7	6.7	6.7	72	-0.4	1	3	248	0.00	30.464 
05:35	6.7	6.7	6.7	71	-0.7	1	3	248	0.00	30.464 
05:40	6.9	6.9	6.9	71	-0.5	1	3	248	0.00	30.464 
05:45	6.9	6.9	6.9	71	-0.5	1	3	270	0.00	30.465 
05:50	6.7	6.7	6.7	71	-0.7	1	4	248	0.00	30.465 
05:55	6.5	6.5	6.5	71	-0.9	2	9	248	0.00	30.465 
06:00	6.5	6.5	6.5	71	-0.9	1	3	248	0.00	30.467 
06:05	6.5	6.5	6.5	71	-0.9	1	4	248	0.00	30.467 
06:10	6.5	6.5	6.5	71	-0.9	1	3	248	0.00	30.467 
06:15	6.3	6.3	6.3	72	-0.8	1	3	248	0.00	30.472 
06:20	6.1	6.1	6.1	71	-1.3	2	4	270	0.00	30.472 
06:25	6.0	6.0	6.0	71	-1.3	1	3	270	0.00	30.472 
06:30	5.8	5.8	5.8	71	-1.5	1	4	270	0.00	30.476 
06:35	5.8	5.8	5.8	71	-1.5	1	3	248	0.00	30.476 
06:40	5.6	5.6	5.6	72	-1.4	1	3	248	0.00	30.476 
06:45	5.6	5.6	5.6	71	-1.7	1	4	248	0.00	30.484 
06:50	5.4	5.4	5.4	72	-1.6	1	5	270	0.00	30.484 
06:55	5.4	5.4	5.4	72	-1.6	1	3	270	0.00	30.484 
07:00	5.4	5.4	5.4	72	-1.6	0	2	248	0.00	30.489 
07:05	5.4	5.4	5.4	73	-1.3	1	4	248	0.00	30.489 
07:10	5.2	5.2	5.2	73	-1.5	0	2	248	0.00	30.489 
07:15	5.2	5.2	5.2	73	-1.5	0	2	248	0.00	30.493 
07:20	5.0	5.0	5.0	73	-1.7	1	4	248	0.00	30.493 
07:25	4.8	4.8	4.8	73	-1.9	1	3	248	0.00	30.493 
07:30	4.8	4.8	4.8	73	-1.9	0	2	248	0.00	30.501 
07:35	4.7	4.7	4.7	73	-2.0	1	3	248	0.00	30.501 
07:40	4.7	4.7	4.7	73	-2.0	1	2	248	0.00	30.501 
07:45	4.7	4.7	4.7	73	-2.0	1	3	248	0.00	30.502 
07:50	4.5	4.5	4.5	73	-2.2	1	3	248	0.00	30.502 
07:55	4.5	4.5	4.5	73	-2.2	1	3	248	0.00	30.502 
08:00	4.5	4.5	4.5	73	-2.2	0	4	248	0.00	30.510 
08:05	4.5	4.5	4.5	73	-2.2	1	4	248	0.00	30.510 
08:10	4.5	4.5	4.5	73	-2.2	2	5	248	0.00	30.510 
08:15	4.7	4.7	4.7	72	-2.3	1	5	248	0.00	30.521 
08:20	4.7	4.7	4.7	72	-2.3	2	4	248	0.00	30.521 
08:25	4.8	4.8	4.8	72	-2.2	2	5	248	0.00	30.521 
08:30	5.0	5.0	5.0	72	-2.0	1	4	248	0.00	30.524 
08:35	5.2	5.2	5.2	72	-1.8	1	3	248	0.00	30.524 
08:40	5.4	5.4	5.4	72	-1.6	1	4	248	0.00	30.524 
08:45	5.4	5.4	5.4	72	-1.6	2	4	248	0.00	30.538 
08:50	5.6	5.6	5.6	72	-1.4	2	5	270	0.00	30.538 
08:55	5.6	5.6	5.6	72	-1.4	1	3	248	0.00	30.538 
09:00	5.8	5.8	5.8	73	-1.0	1	3	248	0.00	30.535 
09:05	5.8	5.8	5.8	73	-1.0	1	4	248	0.00	30.535 
09:10	5.8	5.8	5.8	72	-1.2	1	3	270	0.00	30.535 
09:15	5.8	5.8	5.8	73	-1.0	1	2	270	0.00	30.535 
09:20	6.0	6.0	6.0	73	-0.8	0	3	270	0.00	30.535 
09:25	6.0	6.0	6.0	72	-1.1	1	4	248	0.00	30.535 
09:30	5.8	5.8	5.8	72	-1.2	1	3	248	0.00	30.537 
09:35	5.8	5.8	5.8	72	-1.2	0	2	248	0.00	30.537 
09:40	6.0	6.0	6.0	72	-1.1	1	3	248	0.00	30.537 
09:45	6.1	6.1	6.1	72	-1.0	1	3	248	0.00	30.553 
09:50	6.5	6.5	6.5	72	-0.6	1	4	248	0.00	30.553 
09:55	6.9	6.9	6.9	72	-0.2	2	4	248	0.00	30.553 
10:00	7.2	7.2	7.2	71	-0.2	2	4	248	0.00	30.562 
10:05	7.2	7.2	7.2	71	-0.2	2	4	248	0.00	30.562 
10:10	7.6	7.6	7.6	71	0.2	1	4	248	0.00	30.562 
10:15	7.7	7.7	7.7	70	-0.0	1	4	270	0.00	30.568 
10:20	7.9	7.9	7.9	71	0.5	1	4	270	0.00	30.568 
10:25	8.1	8.1	8.1	70	0.4	1	4	248	0.00	30.568 
10:30	8.3	8.3	8.3	71	0.9	1	4	248	0.00	30.568 
10:35	8.4	8.4	8.4	70	0.7	1	4	270	0.00	30.568 
10:40	8.6	8.6	8.6	70	0.9	1	3	248	0.00	30.568 
10:45	8.8	8.8	8.8	70	1.0	1	3	248	0.00	30.562 
10:50	9.2	9.2	9.2	70	1.4	1	2	248	0.00	30.562 
10:55	9.2	9.2	9.2	70	1.4	0	3	248	0.00	30.562 
11:00	9.7	9.7	9.7	70	1.9	1	3	248	0.00	30.570 
11:05	10.0	10.0	10.0	69	1.9	1	3	248	0.00	30.570 
11:10	10.2	10.2	10.2	69	2.1	2	7	248	0.00	30.570 
11:15	10.4	10.4	10.4	69	2.3	1	5	248	0.00	30.577 
11:20	10.4	10.4	10.4	69	2.3	1	5	248	0.00	30.577 
11:25	10.5	10.5	10.5	69	2.4	1	4	248	0.00	30.577 
11:30	10.9	10.9	10.9	70	3.1	1	3	248	0.00	30.570 
11:35	11.2	11.2	11.2	69	3.0	1	2	248	0.00	30.570 
11:40	11.6	11.6	11.6	69	3.4	1	4	270	0.00	30.570 
11:45	11.7	11.7	11.7	69	3.5	1	4	248	0.00	30.565 
11:50	11.9	11.9	11.9	69	3.7	1	4	315	0.00	30.565 
11:55	12.3	12.3	12.3	68	3.8	1	3	248	0.00	30.565 
12:00	12.4	12.4	12.4	68	3.9	1	4	248	0.00	30.559 
12:05	12.8	12.8	12.8	69	4.6	1	4	248	0.00	30.559 
12:10	13.1	13.1	13.1	69	4.9	1	3	248	0.00	30.559 
12:15	13.3	13.3	13.3	68	4.7	1	3	248	0.00	30.560 
12:20	13.5	13.5	13.5	68	4.9	1	3	248	0.00	30.560 
12:25	13.6	13.6	13.6	68	5.0	1	4	248	0.00	30.560 
12:30	13.6	13.6	13.6	68	5.0	1	5	248	0.00	30.551 
12:35	14.0	14.0	14.0	68	5.4	1	3	248	0.00	30.551 
12:40	14.3	14.3	14.3	68	5.7	1	3	248	0.00	30.551 
12:45	14.6	14.6	14.6	68	6.0	1	3	292	0.00	30.549 
12:50	14.9	14.9	14.9	69	6.6	1	3	292	0.00	30.549 
12:55	15.2	15.2	15.2	68	6.6	1	3	270	0.00	30.549 
13:00	15.4	15.4	15.4	68	6.8	1	5	270	0.00	30.547 
13:05	15.7	15.7	15.7	68	7.0	0	1	315	0.00	30.547 
13:10	16.1	16.1	16.1	67	7.1	1	4	270	0.00	30.547 
13:15	16.2	16.2	16.2	67	7.2	1	5	248	0.00	30.542 
13:20	16.4	16.4	16.4	67	7.4	1	5	248	0.00	30.542 
13:25	16.5	16.5	16.5	67	7.5	1	4	270	0.00	30.542 
13:30	16.5	16.5	16.5	67	7.5	1	3	270	0.00	30.543 
13:35	16.9	16.9	16.9	66	7.5	1	3	270	0.00	30.543 
13:40	17.3	17.3	17.3	67	8.3	1	4	248	0.00	30.543 
13:45	17.5	17.5	17.5	65	7.8	0	2	248	0.00	30.538 
13:50	17.7	17.7	17.7	65	8.0	0	3	248	0.00	30.538 
13:55	17.8	17.8	17.8	65	8.1	1	3	248	0.00	30.538 
14:00	18.0	18.0	18.0	65	8.3	1	2	248	0.00	30.540 
14:05	18.1	18.1	18.1	65	8.3	1	3	248	0.00	30.540 
14:10	18.1	18.1	18.1	64	8.0	2	3	248	0.00	30.540 
14:15	18.3	18.3	18.3	65	8.5	1	3	248	0.00	30.545 
14:20	18.3	18.3	18.3	65	8.5	1	2	248	0.00	30.545 
14:25	18.4	18.4	18.4	65	8.6	1	4	248	0.00	30.545 
14:30	18.6	18.6	18.6	64	8.5	1	3	248	0.00	30.544 
14:35	18.6	18.6	18.6	64	8.5	1	3	248	0.00	30.544 
14:40	18.8	18.8	18.8	65	9.0	1	4	248	0.00	30.544 
14:45	18.8	18.8	18.8	64	8.7	1	3	270	0.00	30.545 
14:50	19.1	19.1	19.1	65	9.3	1	2	270	0.00	30.545 
14:55	19.1	19.1	19.1	64	9.0	1	3	248	0.00	30.545 
15:00	19.1	19.1	19.1	64	9.0	1	3	248	0.00	30.547 
15:05	19.2	19.2	19.2	64	9.0	1	2	248	0.00	30.547 
15:10	19.2	19.2	19.2	64	9.0	1	3	248	0.00	30.547 
15:15	19.2	19.2	19.2	64	9.0	1	4	248	0.00	30.549 
15:20	19.1	19.1	19.1	64	9.0	1	3	270	0.00	30.549 
15:25	19.1	19.1	19.1	64	9.0	1	3	270	0.00	30.549 
15:30	19.1	19.1	19.1	64	9.0	1	3	270	0.00	30.550 
15:35	19.2	19.2	19.2	64	9.0	1	3	270	0.00	30.550 
15:40	19.4	19.4	19.4	64	9.2	1	4	248	0.00	30.550 
15:45	19.7	19.7	19.7	63	9.2	0	2	248	0.00	30.551 
15:50	19.7	19.7	19.7	63	9.2	1	5	248	0.00	30.551 
15:55	19.4	19.4	19.4	64	9.2	0	2	270	0.00	30.551 
16:00	19.2	19.2	19.2	64	9.0	1	2	270	0.00	30.555 
16:05	18.8	18.8	18.8	65	9.0	1	2	270	0.00	30.555 
16:10	18.6	18.6	18.6	65	8.8	1	2	270	0.00	30.555 
16:15	18.6	18.6	18.6	65	8.8	0	2	270	0.00	30.566 
16:20	18.3	18.3	18.3	65	8.5	1	2	270	0.00	30.566 
16:25	18.3	18.3	18.3	66	8.9	0	2	270	0.00	30.566 
16:30	18.1	18.1	18.1	67	9.0	1	3	270	0.00	30.569 
16:35	18.1	18.1	18.1	67	9.0	0	1	270	0.00	30.569 
16:40	18.0	18.0	18.0	67	8.9	0	1	270	0.00	30.569 
16:45	17.8	17.8	17.8	67	8.7	0	1	270	0.00	30.572 
16:50	17.7	17.7	17.7	68	9.0	0	1	270	0.00	30.572 
16:55	17.5	17.5	17.5	68	8.8	0	2	270	0.00	30.572 
17:00	17.3	17.3	17.3	69	8.9	0	1	270	0.00	30.570 
17:05	17.2	17.2	17.2	69	8.8	0	1	270	0.00	30.570 
17:10	17.2	17.2	17.2	69	8.8	0	1	270	0.00	30.570 
17:15	16.9	16.9	16.9	69	8.5	0	0	---	0.00	30.569 
17:20	16.9	16.9	16.9	69	8.5	0	1	270	0.00	30.569 
17:25	16.7	16.7	16.7	70	8.6	0	0	---	0.00	30.569 
17:30	16.5	16.5	16.5	70	8.5	0	0	---	0.00	30.566 
17:35	16.2	16.2	16.2	70	8.2	0	0	---	0.00	30.566 
17:40	16.1	16.1	16.1	71	8.4	0	0	---	0.00	30.566 
17:45	16.1	16.1	16.1	71	8.4	0	0	---	0.00	30.568 
17:50	15.9	15.9	15.9	72	8.5	0	0	---	0.00	30.568 
17:55	15.7	15.7	15.7	72	8.3	0	0	---	0.00	30.568 
18:00	15.6	15.6	15.6	72	8.2	0	0	---	0.00	30.569 
18:05	15.4	15.4	15.4	73	8.3	0	0	---	0.00	30.569 
18:10	15.2	15.2	15.2	73	8.1	0	0	---	0.00	30.569 
18:15	15.1	15.1	15.1	73	8.0	0	0	---	0.00	30.572 
18:20	14.9	14.9	14.9	73	7.8	0	0	---	0.00	30.572 
18:25	14.6	14.6	14.6	73	7.5	0	0	---	0.00	30.572 
18:30	14.4	14.4	14.4	74	7.7	0	0	---	0.00	30.574 
18:35	14.3	14.3	14.3	74	7.6	0	0	---	0.00	30.574 
18:40	14.1	14.1	14.1	75	7.7	0	0	---	0.00	30.574 
18:45	14.0	14.0	14.0	75	7.6	0	0	---	0.00	30.587 
18:50	13.8	13.8	13.8	76	7.7	0	0	---	0.00	30.587 
18:55	13.6	13.6	13.6	76	7.5	0	0	---	0.00	30.587 
19:00	13.5	13.5	13.5	77	7.7	0	0	---	0.00	30.577 
19:05	13.5	13.5	13.5	77	7.7	0	0	---	0.00	30.577 
19:10	13.6	13.6	13.6	78	8.0	0	0	---	0.00	30.577 
19:15	13.6	13.6	13.6	78	8.0	0	0	---	0.00	30.574 
19:20	13.6	13.6	13.6	78	8.0	0	0	---	0.00	30.574 
19:25	13.6	13.6	13.6	78	8.0	0	0	---	0.00	30.574 
19:30	13.6	13.6	13.6	78	8.0	0	1	270	0.00	30.574 
19:35	13.6	13.6	13.6	78	8.0	0	0	---	0.00	30.574 
19:40	13.8	13.8	13.8	78	8.2	0	0	---	0.00	30.574 
19:45	13.6	13.6	13.6	78	8.0	0	0	---	0.00	30.575 
19:50	13.6	13.6	13.6	78	8.0	0	0	---	0.00	30.575 
19:55	13.6	13.6	13.6	78	8.0	0	0	---	0.00	30.575 
20:00	13.5	13.5	13.5	78	7.9	0	0	---	0.00	30.574 
20:05	13.3	13.3	13.3	78	7.7	0	0	---	0.00	30.574 
20:10	13.1	13.1	13.1	78	7.6	0	0	---	0.00	30.574 
20:15	12.9	12.9	12.9	78	7.4	0	0	---	0.00	30.580 
20:20	12.6	12.6	12.6	79	7.3	0	0	---	0.00	30.580 
20:25	12.6	12.6	12.6	79	7.3	0	0	---	0.00	30.580 
20:30	12.4	12.4	12.4	79	7.2	0	0	---	0.00	30.576 
20:35	12.3	12.3	12.3	79	7.1	0	0	---	0.00	30.576 
20:40	12.1	12.1	12.1	80	7.1	0	0	---	0.00	30.576 
20:45	12.1	12.1	12.1	80	7.1	0	0	---	0.00	30.567 
20:50	11.9	11.9	11.9	81	7.2	0	0	---	0.00	30.567 
20:55	11.9	11.9	11.9	81	7.2	0	0	---	0.00	30.567 
21:00	11.7	11.7	11.7	81	7.0	0	0	---	0.00	30.564 
21:05	11.6	11.6	11.6	81	6.9	0	0	---	0.00	30.564 
21:10	11.4	11.4	11.4	81	6.7	0	0	---	0.00	30.564 
21:15	11.4	11.4	11.4	81	6.7	0	0	---	0.00	30.557 
21:20	11.4	11.4	11.4	81	6.7	0	0	---	0.00	30.557 
21:25	11.4	11.4	11.4	82	7.0	0	0	---	0.00	30.557 
21:30	11.4	11.4	11.4	82	7.0	0	0	---	0.00	30.558 
21:35	11.4	11.4	11.4	82	7.0	0	0	---	0.00	30.558 
21:40	11.4	11.4	11.4	82	7.0	0	0	---	0.00	30.558 
21:45	11.6	11.6	11.6	83	7.5	0	0	---	0.00	30.557 
21:50	11.6	11.6	11.6	83	7.5	0	0	---	0.00	30.557 
21:55	11.6	11.6	11.6	83	7.5	0	0	---	0.00	30.557 
22:00	11.6	11.6	11.6	83	7.5	0	0	---	0.00	30.558 
22:05	11.7	11.7	11.7	83	7.6	0	0	---	0.00	30.558 
22:10	12.1	12.1	12.1	84	8.2	0	0	---	0.00	30.558 
22:15	12.6	12.6	12.6	84	8.7	0	1	270	0.00	30.540 
22:20	12.9	12.9	12.9	84	9.0	0	0	---	0.00	30.540 
22:25	13.1	13.1	13.1	84	9.2	0	1	270	0.00	30.540 
22:30	13.3	13.3	13.3	84	9.4	0	0	---	0.00	30.543 
22:35	13.5	13.5	13.5	84	9.6	0	1	270	0.00	30.543 
22:40	13.5	13.5	13.5	84	9.6	0	0	---	0.00	30.543 
22:45	13.6	13.6	13.6	84	9.7	0	1	270	0.00	30.539 
22:50	13.6	13.6	13.6	84	9.7	0	1	270	0.00	30.539 
22:55	13.6	13.6	13.6	83	9.4	0	0	---	0.00	30.539 
23:00	13.6	13.6	13.6	83	9.4	0	1	270	0.00	30.543 
23:05	13.5	13.5	13.5	83	9.3	0	0	---	0.00	30.543 
23:10	13.5	13.5	13.5	83	9.3	0	0	---	0.00	30.543 
23:15	13.3	13.3	13.3	83	9.1	0	0	---	0.00	30.529 
23:20	13.3	13.3	13.3	83	9.1	0	1	270	0.00	30.529 
23:25	13.1	13.1	13.1	83	8.9	0	0	---	0.00	30.529 
23:30	13.1	13.1	13.1	83	8.9	0	1	270	0.00	30.526 
23:35	13.1	13.1	13.1	83	8.9	0	0	---	0.00	30.526 
23:40	13.1	13.1	13.1	83	8.9	0	0	---	0.00	30.526 
23:45	13.1	13.1	13.1	83	8.9	0	0	---	0.00	30.525 
23:50	13.1	13.1	13.1	83	8.9	0	1	270	0.00	30.525 
23:55	13.1	13.1	13.1	83	8.9	0	1	270	0.00	30.525 

CoCoRaHS
IN-AL-39
A2 Web Hosting
Creative Commons License
GoDaddy
search engine by freefind advanced

loaded 2018-11-17 18:17:35 • last modified 2010-11-18 10:43:29
Privacy PolicyDisclaimer
• wx.awcolley.com is powered by PmWiki v.2002016 •
• all content (unless otherwise noted) © 2018 A W Colley